sensor_id;sensor_type;location;lat;lon;timestamp;temperature;humidity
7004;DHT22;3542;48.812;9.146;2022-12-20T00:01:16;3.20;99.90
7004;DHT22;3542;48.812;9.146;2022-12-20T00:03:43;3.20;99.90
7004;DHT22;3542;48.812;9.146;2022-12-20T00:06:09;3.20;99.90
7004;DHT22;3542;48.812;9.146;2022-12-20T00:08:35;3.20;99.90
7004;DHT22;3542;48.812;9.146;2022-12-20T00:11:03;3.10;99.90
7004;DHT22;3542;48.812;9.146;2022-12-20T00:13:29;3.10;99.90
7004;DHT22;3542;48.812;9.146;2022-12-20T00:16:17;3.00;99.90
7004;DHT22;3542;48.812;9.146;2022-12-20T00:18:43;3.00;99.90
7004;DHT22;3542;48.812;9.146;2022-12-20T00:21:11;3.00;99.90
7004;DHT22;3542;48.812;9.146;2022-12-20T00:23:38;3.00;99.90
7004;DHT22;3542;48.812;9.146;2022-12-20T00:26:09;2.90;99.90
7004;DHT22;3542;48.812;9.146;2022-12-20T00:28:35;2.90;99.90
7004;DHT22;3542;48.812;9.146;2022-12-20T00:31:02;2.90;99.90
7004;DHT22;3542;48.812;9.146;2022-12-20T00:33:28;2.80;99.90
7004;DHT22;3542;48.812;9.146;2022-12-20T00:35:55;2.80;99.90
7004;DHT22;3542;48.812;9.146;2022-12-20T00:38:22;2.70;99.90
7004;DHT22;3542;48.812;9.146;2022-12-20T00:41:01;2.70;99.90
7004;DHT22;3542;48.812;9.146;2022-12-20T00:43:28;2.70;99.90
7004;DHT22;3542;48.812;9.146;2022-12-20T00:45:53;2.70;99.90
7004;DHT22;3542;48.812;9.146;2022-12-20T00:48:19;2.70;99.90
7004;DHT22;3542;48.812;9.146;2022-12-20T00:50:45;2.70;99.90
7004;DHT22;3542;48.812;9.146;2022-12-20T00:53:10;2.70;99.90
7004;DHT22;3542;48.812;9.146;2022-12-20T00:55:45;2.80;99.90
7004;DHT22;3542;48.812;9.146;2022-12-20T00:58:12;2.90;99.90
7004;DHT22;3542;48.812;9.146;2022-12-20T01:00:38;2.90;99.90
7004;DHT22;3542;48.812;9.146;2022-12-20T01:03:04;3.00;99.90
7004;DHT22;3542;48.812;9.146;2022-12-20T01:05:30;3.10;99.90
7004;DHT22;3542;48.812;9.146;2022-12-20T01:07:56;3.10;99.90
7004;DHT22;3542;48.812;9.146;2022-12-20T01:10:21;3.10;99.90
7004;DHT22;3542;48.812;9.146;2022-12-20T01:12:47;3.20;99.90
7004;DHT22;3542;48.812;9.146;2022-12-20T01:15:13;3.20;99.90
7004;DHT22;3542;48.812;9.146;2022-12-20T01:17:38;3.20;99.90
7004;DHT22;3542;48.812;9.146;2022-12-20T01:20:05;3.20;99.90
7004;DHT22;3542;48.812;9.146;2022-12-20T01:22:30;3.20;99.90
7004;DHT22;3542;48.812;9.146;2022-12-20T01:24:56;3.20;99.90
7004;DHT22;3542;48.812;9.146;2022-12-20T01:27:21;3.20;99.90
7004;DHT22;3542;48.812;9.146;2022-12-20T01:29:47;3.20;99.90
7004;DHT22;3542;48.812;9.146;2022-12-20T01:32:13;3.30;99.90
7004;DHT22;3542;48.812;9.146;2022-12-20T01:34:38;3.20;99.90
7004;DHT22;3542;48.812;9.146;2022-12-20T01:37:04;3.30;99.90
7004;DHT22;3542;48.812;9.146;2022-12-20T01:39:29;3.30;99.90
7004;DHT22;3542;48.812;9.146;2022-12-20T01:41:55;3.30;99.90
7004;DHT22;3542;48.812;9.146;2022-12-20T01:46:47;3.20;99.90
7004;DHT22;3542;48.812;9.146;2022-12-20T01:49:32;3.10;99.90
7004;DHT22;3542;48.812;9.146;2022-12-20T01:52:08;3.10;99.90
7004;DHT22;3542;48.812;9.146;2022-12-20T01:54:51;3.10;99.90
7004;DHT22;3542;48.812;9.146;2022-12-20T01:57:20;3.20;99.90
7004;DHT22;3542;48.812;9.146;2022-12-20T01:59:47;3.10;99.90
7004;DHT22;3542;48.812;9.146;2022-12-20T03:32:51;4.00;99.90
7004;DHT22;3542;48.812;9.146;2022-12-20T03:35:17;4.00;99.90
7004;DHT22;3542;48.812;9.146;2022-12-20T03:37:42;4.10;99.90
7004;DHT22;3542;48.812;9.146;2022-12-20T03:40:09;4.20;99.90
7004;DHT22;3542;48.812;9.146;2022-12-20T03:42:35;4.30;99.90
7004;DHT22;3542;48.812;9.146;2022-12-20T03:45:01;4.30;99.90
7004;DHT22;3542;48.812;9.146;2022-12-20T03:47:27;4.30;99.90
7004;DHT22;3542;48.812;9.146;2022-12-20T03:49:53;4.30;99.90
7004;DHT22;3542;48.812;9.146;2022-12-20T03:52:18;4.30;99.90
7004;DHT22;3542;48.812;9.146;2022-12-20T03:54:44;4.30;99.90
7004;DHT22;3542;48.812;9.146;2022-12-20T03:57:09;4.30;99.90
7004;DHT22;3542;48.812;9.146;2022-12-20T03:59:35;4.30;99.90
7004;DHT22;3542;48.812;9.146;2022-12-20T04:02:02;4.30;99.90
7004;DHT22;3542;48.812;9.146;2022-12-20T04:04:28;4.30;99.90
7004;DHT22;3542;48.812;9.146;2022-12-20T04:06:53;4.20;99.90
7004;DHT22;3542;48.812;9.146;2022-12-20T04:09:19;4.20;99.90
7004;DHT22;3542;48.812;9.146;2022-12-20T04:11:44;4.20;99.90
7004;DHT22;3542;48.812;9.146;2022-12-20T04:14:10;4.20;99.90
7004;DHT22;3542;48.812;9.146;2022-12-20T04:16:35;4.20;99.90
7004;DHT22;3542;48.812;9.146;2022-12-20T04:19:01;4.20;99.90
7004;DHT22;3542;48.812;9.146;2022-12-20T04:21:29;4.20;99.90
7004;DHT22;3542;48.812;9.146;2022-12-20T04:23:55;4.20;99.90
7004;DHT22;3542;48.812;9.146;2022-12-20T04:26:21;4.20;99.90
7004;DHT22;3542;48.812;9.146;2022-12-20T04:28:47;4.30;99.90
7004;DHT22;3542;48.812;9.146;2022-12-20T04:31:12;4.20;99.90
7004;DHT22;3542;48.812;9.146;2022-12-20T04:33:38;4.20;99.90
7004;DHT22;3542;48.812;9.146;2022-12-20T04:36:04;4.30;99.90
7004;DHT22;3542;48.812;9.146;2022-12-20T04:38:30;4.30;99.90
7004;DHT22;3542;48.812;9.146;2022-12-20T04:40:55;4.20;99.90
7004;DHT22;3542;48.812;9.146;2022-12-20T04:43:22;4.20;99.90
7004;DHT22;3542;48.812;9.146;2022-12-20T04:45:50;4.20;99.90
7004;DHT22;3542;48.812;9.146;2022-12-20T04:48:17;4.30;99.90
7004;DHT22;3542;48.812;9.146;2022-12-20T04:50:46;4.30;99.90
7004;DHT22;3542;48.812;9.146;2022-12-20T04:53:12;4.30;99.90
7004;DHT22;3542;48.812;9.146;2022-12-20T04:55:57;4.40;99.90
7004;DHT22;3542;48.812;9.146;2022-12-20T04:58:23;4.40;99.90
7004;DHT22;3542;48.812;9.146;2022-12-20T05:00:49;4.40;99.90
7004;DHT22;3542;48.812;9.146;2022-12-20T05:03:18;4.40;99.90
7004;DHT22;3542;48.812;9.146;2022-12-20T05:05:43;4.50;99.90
7004;DHT22;3542;48.812;9.146;2022-12-20T05:08:09;4.50;99.90
7004;DHT22;3542;48.812;9.146;2022-12-20T05:10:34;4.40;99.90
7004;DHT22;3542;48.812;9.146;2022-12-20T05:13:00;4.40;99.90
7004;DHT22;3542;48.812;9.146;2022-12-20T05:15:25;4.40;99.90
7004;DHT22;3542;48.812;9.146;2022-12-20T05:17:51;4.50;99.90
7004;DHT22;3542;48.812;9.146;2022-12-20T05:20:16;4.50;99.90
7004;DHT22;3542;48.812;9.146;2022-12-20T05:22:42;4.50;99.90
7004;DHT22;3542;48.812;9.146;2022-12-20T05:25:26;4.60;99.90
7004;DHT22;3542;48.812;9.146;2022-12-20T05:28:10;4.60;99.90
7004;DHT22;3542;48.812;9.146;2022-12-20T05:30:36;4.60;99.90
7004;DHT22;3542;48.812;9.146;2022-12-20T05:33:02;4.60;99.90
7004;DHT22;3542;48.812;9.146;2022-12-20T05:35:27;4.70;99.90
7004;DHT22;3542;48.812;9.146;2022-12-20T05:37:53;4.60;99.90
7004;DHT22;3542;48.812;9.146;2022-12-20T05:40:18;4.70;99.90
7004;DHT22;3542;48.812;9.146;2022-12-20T05:42:44;4.70;99.90
7004;DHT22;3542;48.812;9.146;2022-12-20T05:45:10;4.70;99.90
7004;DHT22;3542;48.812;9.146;2022-12-20T05:47:35;4.70;99.90
7004;DHT22;3542;48.812;9.146;2022-12-20T05:50:02;4.60;99.90
7004;DHT22;3542;48.812;9.146;2022-12-20T05:52:28;4.60;99.90
7004;DHT22;3542;48.812;9.146;2022-12-20T05:54:54;4.60;99.90
7004;DHT22;3542;48.812;9.146;2022-12-20T05:57:19;4.60;99.90
7004;DHT22;3542;48.812;9.146;2022-12-20T05:59:45;4.70;99.90
7004;DHT22;3542;48.812;9.146;2022-12-20T06:02:10;4.60;99.90
7004;DHT22;3542;48.812;9.146;2022-12-20T06:04:37;4.60;99.90
7004;DHT22;3542;48.812;9.146;2022-12-20T06:07:03;4.60;99.90
7004;DHT22;3542;48.812;9.146;2022-12-20T06:09:30;4.50;99.90
7004;DHT22;3542;48.812;9.146;2022-12-20T06:11:55;4.50;99.90
7004;DHT22;3542;48.812;9.146;2022-12-20T06:14:21;4.60;99.90
7004;DHT22;3542;48.812;9.146;2022-12-20T06:16:47;4.60;99.90
7004;DHT22;3542;48.812;9.146;2022-12-20T06:19:12;4.60;99.90
7004;DHT22;3542;48.812;9.146;2022-12-20T06:21:38;4.60;99.90
7004;DHT22;3542;48.812;9.146;2022-12-20T06:24:04;4.60;99.90
7004;DHT22;3542;48.812;9.146;2022-12-20T06:26:30;4.60;99.90
7004;DHT22;3542;48.812;9.146;2022-12-20T06:29:01;4.60;99.90
7004;DHT22;3542;48.812;9.146;2022-12-20T06:31:26;4.60;99.90
7004;DHT22;3542;48.812;9.146;2022-12-20T06:33:52;4.60;99.90
7004;DHT22;3542;48.812;9.146;2022-12-20T06:36:17;4.60;99.90
7004;DHT22;3542;48.812;9.146;2022-12-20T06:38:43;4.60;99.90
7004;DHT22;3542;48.812;9.146;2022-12-20T06:41:08;4.50;99.90
7004;DHT22;3542;48.812;9.146;2022-12-20T06:43:34;4.50;99.90
7004;DHT22;3542;48.812;9.146;2022-12-20T06:45:59;4.50;99.90
7004;DHT22;3542;48.812;9.146;2022-12-20T06:48:25;4.40;99.90
7004;DHT22;3542;48.812;9.146;2022-12-20T06:50:50;4.40;99.90
7004;DHT22;3542;48.812;9.146;2022-12-20T06:53:16;4.40;99.90
7004;DHT22;3542;48.812;9.146;2022-12-20T06:55:42;4.50;99.90
7004;DHT22;3542;48.812;9.146;2022-12-20T06:58:08;4.50;99.90
7004;DHT22;3542;48.812;9.146;2022-12-20T07:00:33;4.50;99.90
7004;DHT22;3542;48.812;9.146;2022-12-20T07:02:59;4.50;99.90
7004;DHT22;3542;48.812;9.146;2022-12-20T07:05:24;4.50;99.90
7004;DHT22;3542;48.812;9.146;2022-12-20T07:07:50;4.60;99.90
7004;DHT22;3542;48.812;9.146;2022-12-20T07:10:16;4.60;99.90
7004;DHT22;3542;48.812;9.146;2022-12-20T07:12:41;4.60;99.90
7004;DHT22;3542;48.812;9.146;2022-12-20T07:15:07;4.60;99.90
7004;DHT22;3542;48.812;9.146;2022-12-20T07:17:33;4.60;99.90
7004;DHT22;3542;48.812;9.146;2022-12-20T07:19:59;4.60;99.90
7004;DHT22;3542;48.812;9.146;2022-12-20T07:22:25;4.50;99.90
7004;DHT22;3542;48.812;9.146;2022-12-20T07:24:51;4.40;99.90
7004;DHT22;3542;48.812;9.146;2022-12-20T07:27:17;4.40;99.90
7004;DHT22;3542;48.812;9.146;2022-12-20T07:29:42;4.40;99.90
7004;DHT22;3542;48.812;9.146;2022-12-20T07:32:10;4.40;99.90
7004;DHT22;3542;48.812;9.146;2022-12-20T07:34:36;4.50;99.90
7004;DHT22;3542;48.812;9.146;2022-12-20T07:37:02;4.50;99.90
7004;DHT22;3542;48.812;9.146;2022-12-20T07:39:27;4.50;99.90
7004;DHT22;3542;48.812;9.146;2022-12-20T07:41:54;4.60;99.90
7004;DHT22;3542;48.812;9.146;2022-12-20T07:44:20;4.70;99.90
7004;DHT22;3542;48.812;9.146;2022-12-20T07:46:46;4.70;99.90
7004;DHT22;3542;48.812;9.146;2022-12-20T07:49:12;4.70;99.90
7004;DHT22;3542;48.812;9.146;2022-12-20T07:51:43;4.80;99.90
7004;DHT22;3542;48.812;9.146;2022-12-20T07:54:14;4.80;99.90
7004;DHT22;3542;48.812;9.146;2022-12-20T07:56:47;4.80;99.90
7004;DHT22;3542;48.812;9.146;2022-12-20T07:59:17;4.80;99.90
7004;DHT22;3542;48.812;9.146;2022-12-20T08:01:45;4.80;99.90
7004;DHT22;3542;48.812;9.146;2022-12-20T08:04:14;4.80;99.90
7004;DHT22;3542;48.812;9.146;2022-12-20T08:06:42;4.80;99.90
7004;DHT22;3542;48.812;9.146;2022-12-20T08:09:10;4.90;99.90
7004;DHT22;3542;48.812;9.146;2022-12-20T08:11:43;4.80;99.90
7004;DHT22;3542;48.812;9.146;2022-12-20T08:14:09;4.90;99.90
7004;DHT22;3542;48.812;9.146;2022-12-20T08:16:35;4.90;99.90
7004;DHT22;3542;48.812;9.146;2022-12-20T08:19:01;4.90;99.90
7004;DHT22;3542;48.812;9.146;2022-12-20T08:21:26;4.90;99.90
7004;DHT22;3542;48.812;9.146;2022-12-20T08:23:53;4.90;99.90
7004;DHT22;3542;48.812;9.146;2022-12-20T08:26:18;5.00;99.90
7004;DHT22;3542;48.812;9.146;2022-12-20T08:28:44;5.00;99.90
7004;DHT22;3542;48.812;9.146;2022-12-20T08:31:11;5.00;99.90
7004;DHT22;3542;48.812;9.146;2022-12-20T08:33:38;5.00;99.90
7004;DHT22;3542;48.812;9.146;2022-12-20T08:36:07;5.10;99.90
7004;DHT22;3542;48.812;9.146;2022-12-20T08:38:33;5.10;99.90
7004;DHT22;3542;48.812;9.146;2022-12-20T08:41:08;5.20;99.90
7004;DHT22;3542;48.812;9.146;2022-12-20T08:43:35;5.20;99.90
7004;DHT22;3542;48.812;9.146;2022-12-20T08:46:01;5.30;99.90
7004;DHT22;3542;48.812;9.146;2022-12-20T08:48:27;5.30;99.90
7004;DHT22;3542;48.812;9.146;2022-12-20T08:50:59;5.50;99.90
7004;DHT22;3542;48.812;9.146;2022-12-20T08:53:25;5.60;99.90
7004;DHT22;3542;48.812;9.146;2022-12-20T08:55:51;5.70;99.90
7004;DHT22;3542;48.812;9.146;2022-12-20T08:58:18;5.70;99.90
7004;DHT22;3542;48.812;9.146;2022-12-20T09:00:43;5.80;99.90
7004;DHT22;3542;48.812;9.146;2022-12-20T09:03:10;6.00;99.90
7004;DHT22;3542;48.812;9.146;2022-12-20T09:05:41;6.10;99.90
7004;DHT22;3542;48.812;9.146;2022-12-20T09:08:07;6.20;99.90
7004;DHT22;3542;48.812;9.146;2022-12-20T09:10:32;6.20;99.90
7004;DHT22;3542;48.812;9.146;2022-12-20T09:12:58;6.20;99.90
7004;DHT22;3542;48.812;9.146;2022-12-20T09:15:23;6.20;99.90
7004;DHT22;3542;48.812;9.146;2022-12-20T09:17:51;6.20;99.90
7004;DHT22;3542;48.812;9.146;2022-12-20T09:20:17;6.30;99.90
7004;DHT22;3542;48.812;9.146;2022-12-20T09:22:42;6.30;99.90
7004;DHT22;3542;48.812;9.146;2022-12-20T09:25:08;6.30;99.90
7004;DHT22;3542;48.812;9.146;2022-12-20T09:27:34;6.40;99.90
7004;DHT22;3542;48.812;9.146;2022-12-20T09:29:59;6.50;99.90
7004;DHT22;3542;48.812;9.146;2022-12-20T09:32:25;6.50;99.90
7004;DHT22;3542;48.812;9.146;2022-12-20T09:34:50;6.50;99.90
7004;DHT22;3542;48.812;9.146;2022-12-20T09:37:16;6.60;99.90
7004;DHT22;3542;48.812;9.146;2022-12-20T09:39:41;6.60;99.90
7004;DHT22;3542;48.812;9.146;2022-12-20T09:42:07;6.50;99.90
7004;DHT22;3542;48.812;9.146;2022-12-20T09:44:36;6.60;99.90
7004;DHT22;3542;48.812;9.146;2022-12-20T09:47:04;6.50;99.90
7004;DHT22;3542;48.812;9.146;2022-12-20T09:49:34;6.50;99.90
7004;DHT22;3542;48.812;9.146;2022-12-20T09:52:28;6.50;99.90
7004;DHT22;3542;48.812;9.146;2022-12-20T10:00:21;6.90;99.90
7004;DHT22;3542;48.812;9.146;2022-12-20T10:02:47;7.00;99.90
7004;DHT22;3542;48.812;9.146;2022-12-20T10:05:24;7.10;99.90
7004;DHT22;3542;48.812;9.146;2022-12-20T10:10:55;7.30;99.90
7004;DHT22;3542;48.812;9.146;2022-12-20T10:16:38;7.40;99.90
7004;DHT22;3542;48.812;9.146;2022-12-20T10:19:12;7.50;99.90
7004;DHT22;3542;48.812;9.146;2022-12-20T10:21:42;7.50;99.90
7004;DHT22;3542;48.812;9.146;2022-12-20T10:24:19;7.50;99.90
7004;DHT22;3542;48.812;9.146;2022-12-20T10:26:48;7.60;99.90
7004;DHT22;3542;48.812;9.146;2022-12-20T10:29:15;7.60;99.90
7004;DHT22;3542;48.812;9.146;2022-12-20T10:31:40;7.60;99.90
7004;DHT22;3542;48.812;9.146;2022-12-20T10:34:06;7.70;99.90
7004;DHT22;3542;48.812;9.146;2022-12-20T10:36:34;7.80;99.90
7004;DHT22;3542;48.812;9.146;2022-12-20T10:39:05;7.80;99.90
7004;DHT22;3542;48.812;9.146;2022-12-20T10:44:19;7.80;99.90
7004;DHT22;3542;48.812;9.146;2022-12-20T10:46:51;7.80;99.90
7004;DHT22;3542;48.812;9.146;2022-12-20T10:49:27;7.80;99.90
7004;DHT22;3542;48.812;9.146;2022-12-20T10:52:19;7.80;99.90
7004;DHT22;3542;48.812;9.146;2022-12-20T10:54:44;7.80;99.90
7004;DHT22;3542;48.812;9.146;2022-12-20T10:59:46;7.70;99.90
7004;DHT22;3542;48.812;9.146;2022-12-20T11:07:36;7.70;99.90
7004;DHT22;3542;48.812;9.146;2022-12-20T11:10:25;7.70;99.90
7004;DHT22;3542;48.812;9.146;2022-12-20T11:12:57;7.70;99.90
7004;DHT22;3542;48.812;9.146;2022-12-20T11:15:30;7.80;99.90
7004;DHT22;3542;48.812;9.146;2022-12-20T11:18:00;7.80;99.90
7004;DHT22;3542;48.812;9.146;2022-12-20T11:20:37;7.90;99.90
7004;DHT22;3542;48.812;9.146;2022-12-20T11:23:27;8.00;99.90
7004;DHT22;3542;48.812;9.146;2022-12-20T11:26:24;8.10;99.90
7004;DHT22;3542;48.812;9.146;2022-12-20T11:40:02;8.20;99.90
7004;DHT22;3542;48.812;9.146;2022-12-20T11:45:41;8.30;99.90
7004;DHT22;3542;48.812;9.146;2022-12-20T11:51:03;8.30;99.90
7004;DHT22;3542;48.812;9.146;2022-12-20T11:53:50;8.30;99.90
7004;DHT22;3542;48.812;9.146;2022-12-20T11:56:24;8.40;99.90
7004;DHT22;3542;48.812;9.146;2022-12-20T11:59:04;8.40;99.90
7004;DHT22;3542;48.812;9.146;2022-12-20T12:01:40;8.40;99.90
7004;DHT22;3542;48.812;9.146;2022-12-20T12:04:17;8.40;99.90
7004;DHT22;3542;48.812;9.146;2022-12-20T12:06:52;8.40;99.90
7004;DHT22;3542;48.812;9.146;2022-12-20T12:09:31;8.40;99.90
7004;DHT22;3542;48.812;9.146;2022-12-20T12:17:13;8.40;99.90
7004;DHT22;3542;48.812;9.146;2022-12-20T12:19:45;8.40;99.90
7004;DHT22;3542;48.812;9.146;2022-12-20T12:22:19;8.40;99.90
7004;DHT22;3542;48.812;9.146;2022-12-20T12:24:51;8.50;99.90
7004;DHT22;3542;48.812;9.146;2022-12-20T12:27:25;8.40;99.90
7004;DHT22;3542;48.812;9.146;2022-12-20T12:29:53;8.50;99.90
7004;DHT22;3542;48.812;9.146;2022-12-20T12:32:32;8.50;99.90
7004;DHT22;3542;48.812;9.146;2022-12-20T12:35:18;8.50;99.90
7004;DHT22;3542;48.812;9.146;2022-12-20T12:43:17;8.70;99.90
7004;DHT22;3542;48.812;9.146;2022-12-20T12:45:49;8.70;99.90
7004;DHT22;3542;48.812;9.146;2022-12-20T12:49:01;8.70;99.90
7004;DHT22;3542;48.812;9.146;2022-12-20T12:51:02;8.80;99.90
7004;DHT22;3542;48.812;9.146;2022-12-20T12:53:33;8.80;99.90
7004;DHT22;3542;48.812;9.146;2022-12-20T13:04:56;9.00;99.90
7004;DHT22;3542;48.812;9.146;2022-12-20T13:07:39;9.00;99.90
7004;DHT22;3542;48.812;9.146;2022-12-20T13:18:20;9.10;99.90
7004;DHT22;3542;48.812;9.146;2022-12-20T13:21:27;9.10;99.90
7004;DHT22;3542;48.812;9.146;2022-12-20T13:26:54;9.10;99.90
7004;DHT22;3542;48.812;9.146;2022-12-20T13:29:31;9.10;99.90
7004;DHT22;3542;48.812;9.146;2022-12-20T13:31:57;9.00;99.90
7004;DHT22;3542;48.812;9.146;2022-12-20T13:34:38;9.00;99.90
7004;DHT22;3542;48.812;9.146;2022-12-20T13:37:25;8.90;99.90
7004;DHT22;3542;48.812;9.146;2022-12-20T13:39:51;8.80;99.90
7004;DHT22;3542;48.812;9.146;2022-12-20T13:42:33;8.80;99.90
7004;DHT22;3542;48.812;9.146;2022-12-20T13:45:02;8.80;99.90
7004;DHT22;3542;48.812;9.146;2022-12-20T13:47:52;8.70;99.90
7004;DHT22;3542;48.812;9.146;2022-12-20T13:50:37;8.70;99.90
7004;DHT22;3542;48.812;9.146;2022-12-20T13:53:05;8.70;99.90
7004;DHT22;3542;48.812;9.146;2022-12-20T13:55:34;8.60;99.90
7004;DHT22;3542;48.812;9.146;2022-12-20T13:58:23;8.60;99.90
7004;DHT22;3542;48.812;9.146;2022-12-20T14:00:50;8.60;99.90
7004;DHT22;3542;48.812;9.146;2022-12-20T14:05:44;8.60;99.90
7004;DHT22;3542;48.812;9.146;2022-12-20T14:08:16;8.60;99.90
7004;DHT22;3542;48.812;9.146;2022-12-20T14:10:43;8.60;99.90
7004;DHT22;3542;48.812;9.146;2022-12-20T14:13:20;8.60;99.90
7004;DHT22;3542;48.812;9.146;2022-12-20T14:15:46;8.60;99.90
7004;DHT22;3542;48.812;9.146;2022-12-20T14:18:23;8.60;99.90
7004;DHT22;3542;48.812;9.146;2022-12-20T14:20:51;8.50;99.90
7004;DHT22;3542;48.812;9.146;2022-12-20T14:23:21;8.60;99.90
7004;DHT22;3542;48.812;9.146;2022-12-20T14:25:54;8.50;99.90
7004;DHT22;3542;48.812;9.146;2022-12-20T14:29:03;8.50;99.90
7004;DHT22;3542;48.812;9.146;2022-12-20T14:31:24;8.50;99.90
7004;DHT22;3542;48.812;9.146;2022-12-20T14:33:54;8.50;99.90
7004;DHT22;3542;48.812;9.146;2022-12-20T14:36:25;8.50;99.90
7004;DHT22;3542;48.812;9.146;2022-12-20T14:38:51;8.50;99.90
7004;DHT22;3542;48.812;9.146;2022-12-20T14:43:59;8.40;99.90
7004;DHT22;3542;48.812;9.146;2022-12-20T14:46:25;8.40;99.90
7004;DHT22;3542;48.812;9.146;2022-12-20T14:49:16;8.30;99.90
7004;DHT22;3542;48.812;9.146;2022-12-20T14:51:44;8.30;99.90
7004;DHT22;3542;48.812;9.146;2022-12-20T14:56:45;8.30;99.90
7004;DHT22;3542;48.812;9.146;2022-12-20T14:59:16;8.30;99.90
7004;DHT22;3542;48.812;9.146;2022-12-20T15:01:42;8.20;99.90
7004;DHT22;3542;48.812;9.146;2022-12-20T15:04:31;8.10;99.90
7004;DHT22;3542;48.812;9.146;2022-12-20T15:06:57;8.10;99.90
7004;DHT22;3542;48.812;9.146;2022-12-20T15:09:22;8.10;99.90
7004;DHT22;3542;48.812;9.146;2022-12-20T15:11:49;8.10;99.90
7004;DHT22;3542;48.812;9.146;2022-12-20T15:16:53;8.00;99.90
7004;DHT22;3542;48.812;9.146;2022-12-20T15:19:18;8.00;99.90
7004;DHT22;3542;48.812;9.146;2022-12-20T15:21:44;8.00;99.90
7004;DHT22;3542;48.812;9.146;2022-12-20T15:24:15;8.00;99.90
7004;DHT22;3542;48.812;9.146;2022-12-20T15:26:43;8.00;99.90
7004;DHT22;3542;48.812;9.146;2022-12-20T15:29:14;7.90;99.90
7004;DHT22;3542;48.812;9.146;2022-12-20T15:31:41;7.90;99.90
7004;DHT22;3542;48.812;9.146;2022-12-20T15:34:17;7.90;99.90
7004;DHT22;3542;48.812;9.146;2022-12-20T15:36:44;7.90;99.90
7004;DHT22;3542;48.812;9.146;2022-12-20T15:39:10;7.80;99.90
7004;DHT22;3542;48.812;9.146;2022-12-20T15:41:40;7.70;99.90
7004;DHT22;3542;48.812;9.146;2022-12-20T15:44:15;7.60;99.90
7004;DHT22;3542;48.812;9.146;2022-12-20T15:46:41;7.60;99.90
7004;DHT22;3542;48.812;9.146;2022-12-20T15:49:16;7.60;99.90
7004;DHT22;3542;48.812;9.146;2022-12-20T15:51:43;7.60;99.90
7004;DHT22;3542;48.812;9.146;2022-12-20T15:56:46;7.60;99.90
7004;DHT22;3542;48.812;9.146;2022-12-20T15:59:11;7.60;99.90
7004;DHT22;3542;48.812;9.146;2022-12-20T16:01:38;7.60;99.90
7004;DHT22;3542;48.812;9.146;2022-12-20T16:04:05;7.50;99.90
7004;DHT22;3542;48.812;9.146;2022-12-20T16:06:31;7.50;99.90
7004;DHT22;3542;48.812;9.146;2022-12-20T16:08:57;7.50;99.90
7004;DHT22;3542;48.812;9.146;2022-12-20T16:11:28;7.50;99.90
7004;DHT22;3542;48.812;9.146;2022-12-20T16:13:55;7.50;99.90
7004;DHT22;3542;48.812;9.146;2022-12-20T16:16:24;7.50;99.90
7004;DHT22;3542;48.812;9.146;2022-12-20T16:18:50;7.50;99.90
7004;DHT22;3542;48.812;9.146;2022-12-20T16:21:20;7.50;99.90
7004;DHT22;3542;48.812;9.146;2022-12-20T16:23:47;7.40;99.90
7004;DHT22;3542;48.812;9.146;2022-12-20T16:26:16;7.40;99.90
7004;DHT22;3542;48.812;9.146;2022-12-20T16:28:42;7.40;99.90
7004;DHT22;3542;48.812;9.146;2022-12-20T16:31:28;7.40;99.90
7004;DHT22;3542;48.812;9.146;2022-12-20T16:33:55;7.50;99.90
7004;DHT22;3542;48.812;9.146;2022-12-20T16:36:22;7.50;99.90
7004;DHT22;3542;48.812;9.146;2022-12-20T16:38:48;7.50;99.90
7004;DHT22;3542;48.812;9.146;2022-12-20T16:41:16;7.40;99.90
7004;DHT22;3542;48.812;9.146;2022-12-20T16:43:42;7.40;99.90
7004;DHT22;3542;48.812;9.146;2022-12-20T16:46:11;7.40;99.90
7004;DHT22;3542;48.812;9.146;2022-12-20T16:48:37;7.40;99.90
7004;DHT22;3542;48.812;9.146;2022-12-20T16:51:02;7.40;99.90
7004;DHT22;3542;48.812;9.146;2022-12-20T16:53:28;7.40;99.90
7004;DHT22;3542;48.812;9.146;2022-12-20T16:55:53;7.40;99.90
7004;DHT22;3542;48.812;9.146;2022-12-20T16:58:19;7.40;99.90
7004;DHT22;3542;48.812;9.146;2022-12-20T17:00:45;7.40;99.90
7004;DHT22;3542;48.812;9.146;2022-12-20T17:03:11;7.40;99.90
7004;DHT22;3542;48.812;9.146;2022-12-20T17:05:37;7.30;99.90
7004;DHT22;3542;48.812;9.146;2022-12-20T17:08:04;7.30;99.90
7004;DHT22;3542;48.812;9.146;2022-12-20T17:10:31;7.30;99.90
7004;DHT22;3542;48.812;9.146;2022-12-20T17:12:57;7.30;99.90
7004;DHT22;3542;48.812;9.146;2022-12-20T17:15:26;7.30;99.90
7004;DHT22;3542;48.812;9.146;2022-12-20T17:17:52;7.30;99.90
7004;DHT22;3542;48.812;9.146;2022-12-20T17:20:19;7.30;99.90
7004;DHT22;3542;48.812;9.146;2022-12-20T17:22:51;7.30;99.90
7004;DHT22;3542;48.812;9.146;2022-12-20T17:25:23;7.30;99.90
7004;DHT22;3542;48.812;9.146;2022-12-20T17:27:50;7.30;99.90
7004;DHT22;3542;48.812;9.146;2022-12-20T17:30:16;7.30;99.90
7004;DHT22;3542;48.812;9.146;2022-12-20T17:32:43;7.20;99.90
7004;DHT22;3542;48.812;9.146;2022-12-20T17:35:24;7.20;99.90
7004;DHT22;3542;48.812;9.146;2022-12-20T17:37:50;7.20;99.90
7004;DHT22;3542;48.812;9.146;2022-12-20T17:40:18;7.30;99.90
7004;DHT22;3542;48.812;9.146;2022-12-20T17:42:44;7.20;99.90
7004;DHT22;3542;48.812;9.146;2022-12-20T17:45:25;7.20;99.90
7004;DHT22;3542;48.812;9.146;2022-12-20T17:47:52;7.20;99.90
7004;DHT22;3542;48.812;9.146;2022-12-20T17:50:18;7.20;99.90
7004;DHT22;3542;48.812;9.146;2022-12-20T17:52:44;7.10;99.90
7004;DHT22;3542;48.812;9.146;2022-12-20T17:55:19;7.10;99.90
7004;DHT22;3542;48.812;9.146;2022-12-20T17:57:45;7.10;99.90
7004;DHT22;3542;48.812;9.146;2022-12-20T18:00:17;7.10;99.90
7004;DHT22;3542;48.812;9.146;2022-12-20T18:02:43;7.00;99.90
7004;DHT22;3542;48.812;9.146;2022-12-20T18:05:10;7.00;99.90
7004;DHT22;3542;48.812;9.146;2022-12-20T18:07:36;7.00;99.90
7004;DHT22;3542;48.812;9.146;2022-12-20T18:10:01;7.10;99.90
7004;DHT22;3542;48.812;9.146;2022-12-20T18:12:27;7.20;99.90
7004;DHT22;3542;48.812;9.146;2022-12-20T18:14:52;7.20;99.90
7004;DHT22;3542;48.812;9.146;2022-12-20T18:17:18;7.20;99.90
7004;DHT22;3542;48.812;9.146;2022-12-20T18:19:43;7.30;99.90
7004;DHT22;3542;48.812;9.146;2022-12-20T18:22:09;7.40;99.90
7004;DHT22;3542;48.812;9.146;2022-12-20T18:24:35;7.40;99.90
7004;DHT22;3542;48.812;9.146;2022-12-20T18:27:00;7.50;99.90
7004;DHT22;3542;48.812;9.146;2022-12-20T18:29:26;7.40;99.90
7004;DHT22;3542;48.812;9.146;2022-12-20T18:31:52;7.40;99.90
7004;DHT22;3542;48.812;9.146;2022-12-20T18:34:18;7.40;99.90
7004;DHT22;3542;48.812;9.146;2022-12-20T18:36:44;7.40;99.90
7004;DHT22;3542;48.812;9.146;2022-12-20T18:39:11;7.40;99.90
7004;DHT22;3542;48.812;9.146;2022-12-20T18:41:36;7.40;99.90
7004;DHT22;3542;48.812;9.146;2022-12-20T18:44:05;7.50;99.90
7004;DHT22;3542;48.812;9.146;2022-12-20T18:46:31;7.60;99.90
7004;DHT22;3542;48.812;9.146;2022-12-20T18:48:58;7.70;99.90
7004;DHT22;3542;48.812;9.146;2022-12-20T18:51:29;7.70;99.90
7004;DHT22;3542;48.812;9.146;2022-12-20T18:53:57;7.70;99.90
7004;DHT22;3542;48.812;9.146;2022-12-20T18:56:25;7.70;99.90
7004;DHT22;3542;48.812;9.146;2022-12-20T18:58:51;7.80;99.90
7004;DHT22;3542;48.812;9.146;2022-12-20T19:01:25;7.70;99.90
7004;DHT22;3542;48.812;9.146;2022-12-20T19:03:51;7.70;99.90
7004;DHT22;3542;48.812;9.146;2022-12-20T19:06:18;7.70;99.90
7004;DHT22;3542;48.812;9.146;2022-12-20T19:08:44;7.60;99.90
7004;DHT22;3542;48.812;9.146;2022-12-20T19:11:12;7.60;99.90
7004;DHT22;3542;48.812;9.146;2022-12-20T19:13:38;7.60;99.90
7004;DHT22;3542;48.812;9.146;2022-12-20T19:16:06;7.60;99.90
7004;DHT22;3542;48.812;9.146;2022-12-20T19:18:33;7.50;99.90
7004;DHT22;3542;48.812;9.146;2022-12-20T19:21:09;7.50;99.90
7004;DHT22;3542;48.812;9.146;2022-12-20T19:23:36;7.60;99.90